createdAt,value
2022-12-19T00:00:42.190Z,94.60
2022-12-19T00:01:42.256Z,95.14
2022-12-19T00:02:42.379Z,95.46
2022-12-19T00:03:42.214Z,95.68
2022-12-19T00:04:42.147Z,93.63
2022-12-19T00:05:42.157Z,94.85
2022-12-19T00:06:43.767Z,94.37
2022-12-19T00:07:42.104Z,94.15
2022-12-19T00:08:42.175Z,94.63
2022-12-19T00:09:42.079Z,94.53
2022-12-19T00:10:42.057Z,94.63
2022-12-19T00:11:42.059Z,94.53
2022-12-19T00:12:42.042Z,94.31
2022-12-19T00:13:42.028Z,95.61
2022-12-19T00:14:42.052Z,95.06
2022-12-19T00:15:41.988Z,95.66
2022-12-19T00:16:42.135Z,95.28
2022-12-19T00:17:41.964Z,95.01
2022-12-19T00:18:41.981Z,94.74
2022-12-19T00:19:41.958Z,95.28
2022-12-19T00:20:41.923Z,94.63
2022-12-19T00:21:41.972Z,94.53
2022-12-19T00:22:41.894Z,94.42
2022-12-19T00:23:41.885Z,94.26
2022-12-19T00:24:41.881Z,94.37
2022-12-19T00:25:41.875Z,94.37
2022-12-19T00:26:41.874Z,94.95
2022-12-19T00:27:41.842Z,95.39
2022-12-19T00:28:41.836Z,94.85
2022-12-19T00:29:41.808Z,95.82
2022-12-19T00:30:41.809Z,95.71
2022-12-19T00:31:41.906Z,96.93
2022-12-19T00:32:41.782Z,96.60
2022-12-19T00:33:43.346Z,97.61
2022-12-19T00:34:41.784Z,97.89
2022-12-19T00:35:41.734Z,97.89
2022-12-19T00:36:41.717Z,99.11
2022-12-19T00:37:48.458Z,99.00
2022-12-19T00:38:41.720Z,99.52
2022-12-19T00:39:41.726Z,100.12
2022-12-19T00:40:41.666Z,99.82
2022-12-19T00:41:42.551Z,100.78
2022-12-19T00:42:41.655Z,100.42
2022-12-19T00:43:41.651Z,100.24
2022-12-19T00:44:41.612Z,100.30
2022-12-19T00:45:41.705Z,101.03
2022-12-19T00:46:41.628Z,101.21
2022-12-19T00:47:41.591Z,102.13
2022-12-19T00:48:41.566Z,102.45
2022-12-19T00:49:41.588Z,102.26
2022-12-19T00:50:41.542Z,102.82
2022-12-19T00:51:41.529Z,103.08
2022-12-19T00:52:41.523Z,104.23
2022-12-19T00:53:41.510Z,104.30
2022-12-19T00:54:41.540Z,104.49
2022-12-19T00:55:41.503Z,105.01
2022-12-19T00:56:41.492Z,104.88
2022-12-19T00:57:41.456Z,104.56
2022-12-19T00:58:46.624Z,104.75
2022-12-19T00:59:41.446Z,105.15
2022-12-19T01:00:41.473Z,104.69
2022-12-19T01:01:41.984Z,104.43
2022-12-19T01:02:41.513Z,104.10
2022-12-19T01:03:52.911Z,104.56
2022-12-19T01:04:42.056Z,103.78
2022-12-19T01:05:42.101Z,105.15
2022-12-19T01:06:41.341Z,105.08
2022-12-19T01:07:41.351Z,105.35
2022-12-19T01:08:41.352Z,105.61
2022-12-19T01:09:41.344Z,105.54
2022-12-19T01:10:41.304Z,105.15
2022-12-19T01:11:41.298Z,105.35
2022-12-19T01:12:41.279Z,106.42
2022-12-19T01:13:41.265Z,105.54
2022-12-19T01:14:41.259Z,104.95
2022-12-19T01:15:41.225Z,105.81
2022-12-19T01:16:41.278Z,105.08
2022-12-19T01:17:44.015Z,105.61
2022-12-19T01:18:41.201Z,105.88
2022-12-19T01:19:44.364Z,106.21
2022-12-19T01:20:41.178Z,105.81
2022-12-19T01:21:41.171Z,106.35
2022-12-19T01:22:41.153Z,106.55
2022-12-19T01:23:41.128Z,106.69
2022-12-19T01:24:41.122Z,106.48
2022-12-19T01:25:43.062Z,107.23
2022-12-19T01:26:41.130Z,106.21
2022-12-19T01:27:41.077Z,105.54
2022-12-19T01:28:41.093Z,106.08
2022-12-19T01:29:49.104Z,106.01
2022-12-19T01:30:41.056Z,106.08
2022-12-19T01:31:41.114Z,105.88
2022-12-19T01:32:41.024Z,105.54
2022-12-19T01:33:41.015Z,105.21
2022-12-19T01:34:40.980Z,105.35
2022-12-19T01:35:41.005Z,105.74
2022-12-19T01:36:40.986Z,105.54
2022-12-19T01:37:40.967Z,105.94
2022-12-19T01:38:40.945Z,106.62
2022-12-19T01:39:40.922Z,106.75
2022-12-19T01:40:40.921Z,107.37
2022-12-19T01:41:40.940Z,107.10
2022-12-19T01:42:40.914Z,107.58
2022-12-19T01:43:40.893Z,108.69
2022-12-19T01:44:40.873Z,108.62
2022-12-19T01:45:45.628Z,110.20
2022-12-19T01:46:40.957Z,110.49
2022-12-19T01:47:40.848Z,110.63
2022-12-19T01:48:40.826Z,111.22
2022-12-19T01:49:40.822Z,112.26
2022-12-19T01:50:44.945Z,113.40
2022-12-19T01:51:40.781Z,113.10
2022-12-19T01:52:40.755Z,113.79
2022-12-19T01:53:48.395Z,115.04
2022-12-19T01:54:40.749Z,115.36
2022-12-19T01:55:40.757Z,115.76
2022-12-19T01:56:40.700Z,117.54
2022-12-19T01:57:40.692Z,118.71
2022-12-19T01:58:40.657Z,120.50
2022-12-19T01:59:40.649Z,121.11
2022-12-19T02:00:40.632Z,124.26
2022-12-19T02:01:46.725Z,124.17
2022-12-19T02:02:40.652Z,125.66
2022-12-19T02:03:40.622Z,126.22
2022-12-19T02:04:40.595Z,127.57
2022-12-19T02:05:40.590Z,128.25
2022-12-19T02:06:40.599Z,130.76
2022-12-19T02:07:40.575Z,132.10
2022-12-19T02:08:40.548Z,134.11
2022-12-19T02:09:40.524Z,135.19
2022-12-19T02:10:40.498Z,135.74
2022-12-19T02:11:40.511Z,136.40
2022-12-19T02:12:40.475Z,136.07
2022-12-19T02:13:40.593Z,136.73
2022-12-19T02:14:40.475Z,139.12
2022-12-19T02:15:40.456Z,140.76
2022-12-19T02:16:40.468Z,142.07
2022-12-19T02:17:40.435Z,143.16
2022-12-19T02:18:40.421Z,144.65
2022-12-19T02:19:40.411Z,147.45
2022-12-19T02:20:40.410Z,150.63
2022-12-19T02:21:40.444Z,153.25
2022-12-19T02:22:40.355Z,154.95
2022-12-19T02:23:40.384Z,159.22
2022-12-19T02:24:40.332Z,163.57
2022-12-19T02:25:40.352Z,165.51
2022-12-19T02:26:40.298Z,167.84
2022-12-19T02:27:40.663Z,168.51
2022-12-19T02:28:40.310Z,170.57
2022-12-19T02:29:40.328Z,173.57
2022-12-19T02:30:40.257Z,173.57
2022-12-19T02:31:40.309Z,175.95
2022-12-19T02:32:40.230Z,176.50
2022-12-19T02:33:40.248Z,178.00
2022-12-19T02:34:44.418Z,178.57
2022-12-19T02:35:40.278Z,179.14
2022-12-19T02:36:40.414Z,181.67
2022-12-19T02:37:40.223Z,183.86
2022-12-19T02:38:40.166Z,186.53
2022-12-19T02:39:40.194Z,192.76
2022-12-19T02:40:40.161Z,197.14
2022-12-19T02:41:40.227Z,202.10
2022-12-19T02:42:40.136Z,208.24
2022-12-19T02:43:40.148Z,211.44
2022-12-19T02:44:40.116Z,214.05
2022-12-19T02:45:40.136Z,215.17
2022-12-19T02:46:40.061Z,215.46
2022-12-19T02:47:40.056Z,219.48
2022-12-19T02:48:40.077Z,220.06
2022-12-19T02:49:40.061Z,220.50
2022-12-19T02:50:40.035Z,221.39
2022-12-19T02:51:40.031Z,219.48
2022-12-19T02:52:40.008Z,222.59
2022-12-19T02:53:40.019Z,223.65
2022-12-19T02:54:45.035Z,222.89
2022-12-19T02:55:39.959Z,223.95
2022-12-19T02:56:39.953Z,224.72
2022-12-19T02:57:39.976Z,225.02
2022-12-19T02:58:39.983Z,224.26
2022-12-19T02:59:39.908Z,226.26
2022-12-19T03:00:39.910Z,225.49
2022-12-19T03:01:40.014Z,224.41
2022-12-19T03:02:40.126Z,226.26
2022-12-19T03:03:39.929Z,225.49
2022-12-19T03:04:39.847Z,223.04
2022-12-19T03:05:39.881Z,225.49
2022-12-19T03:06:39.840Z,223.80
2022-12-19T03:07:39.810Z,222.74
2022-12-19T03:08:39.818Z,222.14
2022-12-19T03:09:39.801Z,222.29
2022-12-19T03:10:39.766Z,221.10
2022-12-19T03:11:39.767Z,223.35
2022-12-19T03:12:39.765Z,222.29
2022-12-19T03:13:39.758Z,223.80
2022-12-19T03:14:39.729Z,223.65
2022-12-19T03:15:39.732Z,222.44
2022-12-19T03:16:39.738Z,220.21
2022-12-19T03:17:39.701Z,220.65
2022-12-19T03:18:39.696Z,223.35
2022-12-19T03:19:39.671Z,224.10
2022-12-19T03:20:39.646Z,223.19
2022-12-19T03:21:39.634Z,223.04
2022-12-19T03:22:39.639Z,221.84
2022-12-19T03:23:39.624Z,220.80
2022-12-19T03:24:39.611Z,220.65
2022-12-19T03:25:39.596Z,219.18
2022-12-19T03:26:39.599Z,218.46
2022-12-19T03:27:39.562Z,221.10
2022-12-19T03:28:39.576Z,223.19
2022-12-19T03:29:39.561Z,223.19
2022-12-19T03:30:39.608Z,220.36
2022-12-19T03:31:39.550Z,220.36
2022-12-19T03:32:39.511Z,219.91
2022-12-19T03:33:39.502Z,221.24
2022-12-19T03:34:39.481Z,222.89
2022-12-19T03:35:39.488Z,223.04
2022-12-19T03:36:39.500Z,225.49
2022-12-19T03:37:39.472Z,224.10
2022-12-19T03:38:39.447Z,225.33
2022-12-19T03:39:39.441Z,224.41
2022-12-19T03:40:39.416Z,225.49
2022-12-19T03:41:39.405Z,226.41
2022-12-19T03:42:39.383Z,227.20
2022-12-19T03:43:39.367Z,227.04
2022-12-19T03:44:39.376Z,225.49
2022-12-19T03:45:39.444Z,223.50
2022-12-19T03:46:39.339Z,222.29
2022-12-19T03:47:39.337Z,221.99
2022-12-19T03:48:39.303Z,220.65
2022-12-19T03:49:39.298Z,221.24
2022-12-19T03:50:39.315Z,222.74
2022-12-19T03:51:39.292Z,221.69
2022-12-19T03:52:39.258Z,225.18
2022-12-19T03:53:39.255Z,226.88
2022-12-19T03:54:39.264Z,227.82
2022-12-19T03:55:39.255Z,230.05
2022-12-19T03:56:39.223Z,228.77
2022-12-19T03:57:39.247Z,230.70
2022-12-19T03:58:39.189Z,230.86
2022-12-19T03:59:39.174Z,231.18
2022-12-19T04:00:39.163Z,233.64
2022-12-19T04:01:39.279Z,232.98
2022-12-19T04:02:39.179Z,232.00
2022-12-19T04:03:39.198Z,231.67
2022-12-19T04:04:39.099Z,228.62
2022-12-19T04:05:39.124Z,228.14
2022-12-19T04:06:39.094Z,228.77
2022-12-19T04:07:39.088Z,227.82
2022-12-19T04:08:39.062Z,227.51
2022-12-19T04:09:39.040Z,225.79
2022-12-19T04:10:39.062Z,226.26
2022-12-19T04:11:39.005Z,225.79
2022-12-19T04:12:39.021Z,225.18
2022-12-19T04:13:39.030Z,225.18
2022-12-19T04:14:38.976Z,221.10
2022-12-19T04:15:39.028Z,222.89
2022-12-19T04:16:38.982Z,223.19
2022-12-19T04:17:38.975Z,223.19
2022-12-19T04:18:38.955Z,222.74
2022-12-19T04:19:42.607Z,222.74
2022-12-19T04:20:38.910Z,221.84
2022-12-19T04:21:38.909Z,222.89
2022-12-19T04:22:38.892Z,224.87
2022-12-19T04:23:38.854Z,224.41
2022-12-19T04:24:38.843Z,224.56
2022-12-19T04:25:39.083Z,225.49
2022-12-19T04:26:38.861Z,224.72
2022-12-19T04:27:38.817Z,225.02
2022-12-19T04:28:38.815Z,226.10
2022-12-19T04:29:38.790Z,227.20
2022-12-19T04:30:38.798Z,226.26
2022-12-19T04:31:38.786Z,225.33
2022-12-19T04:32:38.772Z,223.50
2022-12-19T04:33:38.747Z,223.19
2022-12-19T04:34:42.736Z,220.65
2022-12-19T04:35:38.725Z,220.80
2022-12-19T04:36:38.749Z,220.06
2022-12-19T04:37:38.699Z,216.45
2022-12-19T04:38:38.699Z,212.40
2022-12-19T04:39:38.686Z,211.44
2022-12-19T04:40:41.513Z,210.36
2022-12-19T04:41:38.664Z,209.16
2022-12-19T04:42:38.619Z,210.50
2022-12-19T04:43:38.634Z,209.69
2022-12-19T04:44:38.620Z,207.32
2022-12-19T04:45:38.583Z,209.03
2022-12-19T04:46:38.603Z,208.50
2022-12-19T04:47:38.579Z,209.29
2022-12-19T04:48:38.574Z,208.76
2022-12-19T04:49:38.558Z,207.71
2022-12-19T04:50:38.529Z,206.02
2022-12-19T04:51:38.517Z,205.51
2022-12-19T04:52:38.490Z,205.38
2022-12-19T04:53:38.483Z,205.25
2022-12-19T04:54:38.518Z,205.25
2022-12-19T04:55:38.468Z,205.89
2022-12-19T04:56:38.444Z,203.47
2022-12-19T04:57:38.422Z,201.61
2022-12-19T04:58:38.413Z,199.29
2022-12-19T04:59:38.421Z,197.85
2022-12-19T05:00:38.408Z,196.32
2022-12-19T05:01:38.493Z,195.50
2022-12-19T05:02:38.576Z,194.46
2022-12-19T05:03:38.375Z,194.23
2022-12-19T05:04:38.364Z,191.30
2022-12-19T05:05:38.375Z,192.53
2022-12-19T05:06:38.325Z,190.64
2022-12-19T05:07:38.324Z,190.31
2022-12-19T05:08:38.308Z,190.09
2022-12-19T05:09:38.286Z,190.64
2022-12-19T05:10:38.295Z,190.31
2022-12-19T05:11:38.244Z,187.28
2022-12-19T05:12:38.238Z,188.67
2022-12-19T05:13:38.218Z,188.13
2022-12-19T05:14:38.212Z,188.02
2022-12-19T05:15:38.258Z,187.17
2022-12-19T05:16:38.204Z,187.92
2022-12-19T05:17:38.179Z,186.53
2022-12-19T05:18:38.156Z,186.64
2022-12-19T05:19:38.167Z,186.73
2022-12-19T05:20:38.167Z,186.11
2022-12-19T05:21:38.150Z,185.90
2022-12-19T05:22:38.134Z,185.29
2022-12-19T05:23:38.099Z,183.46
2022-12-19T05:24:38.100Z,180.88
2022-12-19T05:25:38.084Z,179.34
2022-12-19T05:26:38.082Z,178.38
2022-12-19T05:27:38.072Z,177.25
2022-12-19T05:28:38.051Z,174.12
2022-12-19T05:29:38.033Z,173.40
2022-12-19T05:30:38.028Z,172.86
2022-12-19T05:31:38.037Z,172.50
2022-12-19T05:32:37.998Z,170.92
2022-12-19T05:33:37.976Z,169.53
2022-12-19T05:34:37.988Z,168.51
2022-12-19T05:35:37.943Z,167.33
2022-12-19T05:36:37.966Z,168.17
2022-12-19T05:37:37.930Z,166.67
2022-12-19T05:38:37.899Z,166.17
2022-12-19T05:39:37.915Z,166.17
2022-12-19T05:40:37.905Z,166.34
2022-12-19T05:41:37.898Z,164.21
2022-12-19T05:42:37.856Z,164.38
2022-12-19T05:43:37.867Z,162.46
2022-12-19T05:44:37.824Z,161.37
2022-12-19T05:45:37.837Z,160.29
2022-12-19T05:46:37.849Z,159.37
2022-12-19T05:47:38.215Z,158.47
2022-12-19T05:48:37.803Z,157.72
2022-12-19T05:49:37.794Z,157.42
2022-12-19T05:50:37.810Z,156.54
2022-12-19T05:51:37.730Z,157.87
2022-12-19T05:52:37.719Z,157.28
2022-12-19T05:53:37.730Z,155.38
2022-12-19T05:54:37.725Z,154.80
2022-12-19T05:55:37.745Z,153.67
2022-12-19T05:56:37.683Z,153.39
2022-12-19T05:57:37.650Z,152.83
2022-12-19T05:58:37.678Z,153.39
2022-12-19T05:59:37.648Z,152.41
2022-12-19T06:00:37.619Z,151.17
2022-12-19T06:01:37.722Z,149.29
2022-12-19T06:02:37.754Z,150.22
2022-12-19T06:03:37.670Z,148.89
2022-12-19T06:04:37.595Z,149.02
2022-12-19T06:05:37.581Z,148.10
2022-12-19T06:06:37.560Z,145.40
2022-12-19T06:07:37.528Z,144.65
2022-12-19T06:08:37.541Z,145.02
2022-12-19T06:09:37.497Z,145.02
2022-12-19T06:10:37.514Z,144.65
2022-12-19T06:11:37.510Z,144.27
2022-12-19T06:12:37.463Z,144.02
2022-12-19T06:13:37.481Z,142.92
2022-12-19T06:14:37.445Z,143.90
2022-12-19T06:15:37.449Z,144.02
2022-12-19T06:16:37.461Z,142.43
2022-12-19T06:17:37.414Z,142.19
2022-12-19T06:18:41.600Z,140.99
2022-12-19T06:19:37.377Z,141.83
2022-12-19T06:20:37.428Z,140.52
2022-12-19T06:21:42.246Z,141.95
2022-12-19T06:22:37.375Z,142.55
2022-12-19T06:23:37.342Z,142.92
2022-12-19T06:24:37.360Z,141.47
2022-12-19T06:25:37.316Z,144.27
2022-12-19T06:26:37.299Z,145.52
2022-12-19T06:27:37.265Z,147.84
2022-12-19T06:28:37.310Z,149.15
2022-12-19T06:29:37.261Z,149.69
2022-12-19T06:30:37.324Z,148.76
2022-12-19T06:31:37.323Z,147.45
2022-12-19T06:32:38.269Z,147.32
2022-12-19T06:33:37.221Z,148.10
2022-12-19T06:35:03.352Z,148.23
2022-12-19T06:35:37.179Z,148.76
2022-12-19T06:36:37.199Z,148.49
2022-12-19T06:37:39.541Z,148.62
2022-12-19T06:38:37.157Z,148.36
2022-12-19T06:39:37.140Z,149.02
2022-12-19T06:40:37.116Z,149.96
2022-12-19T06:41:37.128Z,149.96
2022-12-19T06:42:37.105Z,150.36
2022-12-19T06:43:37.073Z,150.63
2022-12-19T06:44:37.085Z,152.41
2022-12-19T06:45:37.120Z,153.39
2022-12-19T06:46:37.050Z,153.53
2022-12-19T06:47:37.051Z,152.97
2022-12-19T06:48:37.035Z,153.81
2022-12-19T06:49:37.005Z,155.52
2022-12-19T06:50:37.004Z,156.84
2022-12-19T06:51:36.965Z,158.17
2022-12-19T06:52:36.998Z,158.92
2022-12-19T06:53:36.966Z,158.77
2022-12-19T06:54:36.932Z,158.47
2022-12-19T06:55:36.914Z,160.90
2022-12-19T06:56:36.932Z,162.46
2022-12-19T06:57:36.894Z,165.02
2022-12-19T06:58:36.908Z,165.51
2022-12-19T06:59:36.901Z,166.34
2022-12-19T07:00:36.899Z,168.00
2022-12-19T07:01:36.960Z,169.02
2022-12-19T07:02:37.022Z,173.22
2022-12-19T07:03:36.840Z,172.50
2022-12-19T07:04:36.823Z,173.40
2022-12-19T07:05:36.784Z,172.86
2022-12-19T07:06:36.773Z,174.48
2022-12-19T07:07:36.761Z,174.66
2022-12-19T07:08:36.787Z,177.25
2022-12-19T07:09:36.750Z,177.81
2022-12-19T07:10:36.780Z,178.76
2022-12-19T07:11:36.709Z,179.34
2022-12-19T07:12:36.708Z,180.11
2022-12-19T07:13:36.702Z,181.67
2022-12-19T07:14:36.722Z,180.49
2022-12-19T07:15:36.652Z,177.44
2022-12-19T07:16:36.698Z,177.44
2022-12-19T07:17:36.633Z,178.00
2022-12-19T07:18:36.637Z,178.57
2022-12-19T07:19:36.605Z,179.14
2022-12-19T07:20:40.609Z,181.87
2022-12-19T07:21:36.606Z,182.66
2022-12-19T07:22:36.592Z,184.47
2022-12-19T07:23:36.565Z,184.27
2022-12-19T07:24:36.547Z,185.29
2022-12-19T07:25:36.549Z,184.47
2022-12-19T07:26:36.540Z,185.49
2022-12-19T07:27:36.522Z,186.11
2022-12-19T07:28:36.506Z,185.70
2022-12-19T07:29:36.476Z,186.11
2022-12-19T07:30:36.495Z,186.22
2022-12-19T07:31:36.514Z,185.07
2022-12-19T07:32:36.538Z,186.32
2022-12-19T07:33:36.425Z,185.49
2022-12-19T07:34:36.422Z,185.08
2022-12-19T07:35:36.458Z,185.08
2022-12-19T07:36:36.469Z,183.06
2022-12-19T07:37:36.443Z,182.26
2022-12-19T07:38:36.401Z,181.47
2022-12-19T07:39:36.360Z,181.47
2022-12-19T07:40:36.417Z,182.46
2022-12-19T07:41:36.360Z,183.26
2022-12-19T07:42:36.362Z,182.86
2022-12-19T07:43:36.320Z,182.66
2022-12-19T07:44:36.355Z,183.26
2022-12-19T07:45:36.416Z,183.86
2022-12-19T07:46:36.340Z,182.66
2022-12-19T07:47:36.315Z,182.07
2022-12-19T07:48:36.241Z,183.46
2022-12-19T07:49:36.224Z,184.27
2022-12-19T07:50:36.264Z,184.47
2022-12-19T07:51:36.224Z,185.70
2022-12-19T07:52:36.180Z,183.66
2022-12-19T07:53:36.181Z,183.06
2022-12-19T07:54:36.185Z,183.66
2022-12-19T07:55:36.169Z,184.27
2022-12-19T07:56:36.153Z,183.66
2022-12-19T07:57:36.116Z,182.66
2022-12-19T07:58:36.137Z,183.46
2022-12-19T07:59:39.328Z,184.47
2022-12-19T08:00:36.112Z,184.67
2022-12-19T08:01:36.268Z,186.52
2022-12-19T08:02:36.219Z,186.94
2022-12-19T08:03:36.077Z,185.90
2022-12-19T08:04:36.060Z,186.22
2022-12-19T08:05:36.051Z,186.22
2022-12-19T08:06:40.802Z,187.06
2022-12-19T08:07:36.013Z,188.67
2022-12-19T08:08:35.990Z,190.20
2022-12-19T08:09:35.966Z,190.64
2022-12-19T08:10:35.982Z,191.19
2022-12-19T08:11:35.947Z,190.09
2022-12-19T08:12:35.970Z,189.76
2022-12-19T08:13:40.880Z,191.41
2022-12-19T08:14:35.921Z,191.63
2022-12-19T08:15:35.913Z,192.08
2022-12-19T08:16:55.581Z,192.42
2022-12-19T08:17:35.917Z,194.12
2022-12-19T08:18:35.873Z,198.21
2022-12-19T08:19:35.886Z,202.35
2022-12-19T08:20:35.838Z,204.99
2022-12-19T08:21:35.814Z,208.10
2022-12-19T08:22:35.904Z,208.90
2022-12-19T08:23:35.816Z,210.90
2022-12-19T08:24:35.791Z,213.22
2022-12-19T08:25:35.810Z,214.61
2022-12-19T08:26:40.491Z,215.60
2022-12-19T08:27:35.788Z,215.60
2022-12-19T08:28:35.766Z,213.91
2022-12-19T08:29:35.734Z,214.05
2022-12-19T08:30:35.749Z,212.81
2022-12-19T08:31:35.706Z,211.85
2022-12-19T08:32:35.686Z,211.85
2022-12-19T08:33:35.683Z,212.81
2022-12-19T08:34:35.682Z,212.81
2022-12-19T08:35:35.652Z,213.22
2022-12-19T08:36:35.657Z,215.31
2022-12-19T08:37:35.668Z,216.30
2022-12-19T08:38:35.636Z,217.59
2022-12-19T08:39:35.617Z,219.18
2022-12-19T08:40:35.601Z,220.95
2022-12-19T08:41:35.590Z,221.54
2022-12-19T08:42:35.586Z,224.72
2022-12-19T08:43:35.573Z,228.46
2022-12-19T08:44:35.544Z,232.00
2022-12-19T08:45:36.326Z,234.81
2022-12-19T08:46:35.590Z,236.33
2022-12-19T08:47:35.538Z,240.12
2022-12-19T08:48:35.476Z,242.24
2022-12-19T08:49:35.511Z,246.22
2022-12-19T08:50:35.475Z,248.64
2022-12-19T08:51:35.446Z,251.68
2022-12-19T08:52:35.477Z,253.03
2022-12-19T08:53:35.395Z,258.39
2022-12-19T08:54:35.400Z,259.20
2022-12-19T08:55:35.420Z,263.14
2022-12-19T08:56:35.403Z,265.26
2022-12-19T08:57:35.386Z,262.72
2022-12-19T08:58:35.357Z,266.11
2022-12-19T08:59:35.340Z,265.26
2022-12-19T09:00:35.332Z,267.63
2022-12-19T09:01:35.363Z,269.16
2022-12-19T09:02:35.477Z,270.04
2022-12-19T09:03:58.702Z,271.38
2022-12-19T09:06:12.176Z,271.83
2022-12-19T09:06:22.451Z,297.08
2022-12-19T09:07:17.974Z,291.30
2022-12-19T09:08:17.915Z,286.98
2022-12-19T09:09:17.919Z,289.51
2022-12-19T09:10:17.887Z,286.24
2022-12-19T09:11:17.885Z,286.49
2022-12-19T09:12:17.900Z,287.74
2022-12-19T09:13:17.864Z,292.59
2022-12-19T09:14:21.434Z,295.75
2022-12-19T09:15:17.818Z,293.64
2022-12-19T09:16:17.934Z,297.35
2022-12-19T09:17:17.823Z,295.75
2022-12-19T09:18:17.795Z,302.54
2022-12-19T09:19:17.794Z,301.71
2022-12-19T09:20:22.907Z,300.88
2022-12-19T09:21:17.998Z,299.24
2022-12-19T09:22:17.776Z,297.89
2022-12-19T09:23:17.731Z,297.08
2022-12-19T09:24:17.709Z,300.06
2022-12-19T09:25:17.686Z,300.33
2022-12-19T09:26:17.696Z,304.78
2022-12-19T09:27:17.699Z,307.05
2022-12-19T09:28:27.466Z,310.53
2022-12-19T09:29:20.923Z,309.65
2022-12-19T09:30:17.670Z,312.29
2022-12-19T09:31:17.674Z,313.18
2022-12-19T09:32:17.616Z,313.78
2022-12-19T09:33:17.615Z,313.18
2022-12-19T09:34:17.635Z,317.72
2022-12-19T09:35:17.605Z,317.72
2022-12-19T09:36:17.589Z,317.41
2022-12-19T09:37:18.043Z,318.64
2022-12-19T09:38:17.554Z,320.19
2022-12-19T09:39:17.588Z,319.26
2022-12-19T09:40:17.535Z,320.81
2022-12-19T09:41:18.074Z,326.21
2022-12-19T09:42:17.510Z,327.18
2022-12-19T09:43:17.464Z,329.48
2022-12-19T09:44:17.514Z,330.47
2022-12-19T09:45:18.773Z,328.49
2022-12-19T09:46:17.522Z,326.21
2022-12-19T09:47:17.474Z,323.97
2022-12-19T09:48:24.497Z,324.29
2022-12-19T09:49:17.394Z,322.07
2022-12-19T09:50:17.411Z,322.07
2022-12-19T09:51:17.368Z,325.57
2022-12-19T09:52:17.345Z,328.49
2022-12-19T09:53:17.367Z,328.82
2022-12-19T09:54:17.335Z,331.80
2022-12-19T09:55:17.434Z,333.48
2022-12-19T09:56:17.342Z,331.80
2022-12-19T09:57:17.275Z,335.18
2022-12-19T09:58:17.308Z,334.16
2022-12-19T09:59:17.264Z,333.14
2022-12-19T10:00:17.293Z,329.48
2022-12-19T10:01:17.441Z,323.97
2022-12-19T10:02:17.478Z,327.84
2022-12-19T10:03:17.410Z,328.16
2022-12-19T10:04:17.209Z,328.82
2022-12-19T10:05:41.219Z,329.15
2022-12-19T10:07:19.772Z,332.47
2022-12-19T10:08:01.776Z,339.67
2022-12-19T10:08:17.166Z,345.37
2022-12-19T10:10:43.995Z,350.52
2022-12-19T10:12:52.262Z,351.64
2022-12-19T10:12:59.619Z,417.55
2022-12-19T10:13:52.118Z,388.92
2022-12-19T10:14:52.041Z,375.71
2022-12-19T10:15:59.861Z,369.39
2022-12-19T10:17:08.841Z,364.08
2022-12-19T10:17:52.035Z,361.28
2022-12-19T10:18:56.458Z,355.05
2022-12-19T10:19:52.014Z,352.77
2022-12-19T10:20:51.986Z,352.77
2022-12-19T10:22:17.192Z,354.29
2022-12-19T10:22:51.993Z,352.01
2022-12-19T10:23:51.983Z,355.43
2022-12-19T10:25:02.076Z,352.39
2022-12-19T10:25:51.959Z,356.59
2022-12-19T10:26:51.927Z,355.82
2022-12-19T10:28:00.070Z,353.52
2022-12-19T10:28:51.922Z,349.77
2022-12-19T10:29:51.902Z,351.64
2022-12-19T10:30:51.933Z,356.20
2022-12-19T10:31:53.755Z,357.75
2022-12-19T10:32:51.866Z,358.53
2022-12-19T10:33:51.886Z,357.36
2022-12-19T10:34:51.868Z,356.59
2022-12-19T10:35:51.850Z,353.52
2022-12-19T10:37:51.817Z,356.59
2022-12-19T10:38:52.158Z,357.75
2022-12-19T10:39:51.756Z,356.59
2022-12-19T10:40:51.786Z,356.20
2022-12-19T10:41:51.745Z,353.52
2022-12-19T10:42:51.721Z,350.14
2022-12-19T10:43:51.752Z,348.66
2022-12-19T10:44:51.728Z,348.66
2022-12-19T10:45:51.716Z,349.03
2022-12-19T10:46:51.722Z,347.56
2022-12-19T10:47:51.653Z,346.82
2022-12-19T10:48:51.706Z,342.14
2022-12-19T10:49:51.656Z,338.62
2022-12-19T10:50:51.633Z,334.16
2022-12-19T10:51:51.657Z,336.55
2022-12-19T10:52:51.627Z,336.89
2022-12-19T10:53:51.578Z,336.89
2022-12-19T10:54:51.586Z,334.49
2022-12-19T10:55:51.660Z,335.86
2022-12-19T10:56:51.519Z,332.80
2022-12-19T10:57:51.556Z,337.23
2022-12-19T10:58:51.565Z,335.52
2022-12-19T10:59:51.504Z,335.52
2022-12-19T11:00:51.488Z,334.49
2022-12-19T11:02:01.004Z,335.86
2022-12-19T11:02:51.687Z,334.16
2022-12-19T11:03:51.558Z,337.93
2022-12-19T11:04:51.449Z,337.58
2022-12-19T11:05:58.305Z,340.72
2022-12-19T11:06:51.377Z,342.85
2022-12-19T11:07:51.386Z,345.01
2022-12-19T11:08:51.356Z,346.82
2022-12-19T11:10:33.265Z,348.29
2022-12-19T11:15:45.959Z,346.46
2022-12-19T11:29:31.405Z,346.46
2022-12-19T11:32:46.106Z,408.13
2022-12-19T11:33:15.712Z,327.18
2022-12-19T11:34:15.577Z,285.74
2022-12-19T11:35:15.568Z,262.72
2022-12-19T11:36:15.530Z,247.33
2022-12-19T11:37:15.565Z,235.48
2022-12-19T11:38:15.496Z,224.26
2022-12-19T11:39:15.489Z,214.47
2022-12-19T11:40:15.487Z,201.11
2022-12-19T11:41:15.487Z,191.41
2022-12-19T11:42:15.475Z,186.22
2022-12-19T11:44:15.420Z,170.92
2022-12-19T11:45:15.432Z,165.84
2022-12-19T11:46:21.362Z,159.98
2022-12-19T11:47:15.391Z,155.38
2022-12-19T11:48:15.392Z,149.29
2022-12-19T11:49:15.392Z,143.04
2022-12-19T11:50:15.399Z,138.77
2022-12-19T11:51:15.350Z,134.97
2022-12-19T11:52:29.758Z,130.15
2022-12-19T11:53:19.160Z,127.28
2022-12-19T11:54:15.325Z,121.55
2022-12-19T11:55:15.314Z,116.89
2022-12-19T11:56:16.536Z,111.07
2022-12-19T11:57:15.246Z,105.94
2022-12-19T11:58:15.286Z,102.07
2022-12-19T11:59:15.239Z,96.38
2022-12-19T12:00:15.251Z,94.28
2022-12-19T12:01:15.227Z,90.12
2022-12-19T12:02:15.232Z,85.43
2022-12-19T12:03:15.243Z,81.29
2022-12-19T12:04:15.359Z,75.36
2022-12-19T12:05:15.241Z,70.96
2022-12-19T12:06:15.190Z,66.61
2022-12-19T12:07:45.583Z,62.63
2022-12-19T12:15:37.081Z,59.13
2022-12-19T12:32:00.730Z,57.55
2022-12-19T12:38:14.127Z,56.96
2022-12-19T12:38:27.604Z,45.02
2022-12-19T12:39:03.609Z,38.99
2022-12-19T12:40:03.530Z,35.34
2022-12-19T12:41:03.607Z,33.03
2022-12-19T12:42:03.528Z,31.52
2022-12-19T12:43:03.574Z,30.09
2022-12-19T12:44:03.507Z,29.29
2022-12-19T12:45:03.521Z,28.46
2022-12-19T12:46:03.558Z,27.80
2022-12-19T12:47:03.536Z,27.20
2022-12-19T12:48:03.451Z,26.87
2022-12-19T12:49:03.454Z,26.36
2022-12-19T12:50:03.427Z,26.23
2022-12-19T12:51:03.435Z,25.92
2022-12-19T12:52:03.392Z,25.50
2022-12-19T12:53:03.390Z,25.34
2022-12-19T12:54:03.379Z,25.02
2022-12-19T12:55:03.365Z,24.89
2022-12-19T12:56:03.324Z,24.67
2022-12-19T12:57:03.311Z,24.57
2022-12-19T12:58:03.327Z,24.44
2022-12-19T12:59:03.313Z,24.26
2022-12-19T13:00:03.300Z,24.15
2022-12-19T13:01:03.309Z,24.16
2022-12-19T13:02:03.420Z,23.88
2022-12-19T13:03:03.410Z,24.01
2022-12-19T13:04:03.265Z,23.75
2022-12-19T13:05:03.246Z,23.72
2022-12-19T13:06:03.193Z,23.58
2022-12-19T13:07:03.194Z,23.55
2022-12-19T13:08:03.177Z,23.45
2022-12-19T13:09:03.182Z,23.34
2022-12-19T13:10:03.155Z,23.37
2022-12-19T13:11:03.164Z,23.29
2022-12-19T13:12:03.135Z,23.32
2022-12-19T13:13:03.100Z,23.32
2022-12-19T13:14:03.131Z,23.26
2022-12-19T13:15:03.129Z,23.29
2022-12-19T13:16:03.093Z,23.29
2022-12-19T13:17:03.094Z,23.24
2022-12-19T13:18:03.058Z,23.37
2022-12-19T13:19:03.016Z,23.26
2022-12-19T13:20:03.008Z,23.29
2022-12-19T13:21:03.053Z,23.16
2022-12-19T13:22:03.019Z,23.16